createdAt,value
2022-08-24T00:00:21.015Z,8.70
2022-08-24T00:02:50.270Z,9.43
2022-08-24T00:05:21.543Z,12.32
2022-08-24T00:07:50.273Z,7.75
2022-08-24T00:10:19.545Z,7.47
2022-08-24T00:12:48.123Z,10.60
2022-08-24T00:15:16.533Z,10.15
2022-08-24T00:17:45.057Z,8.45
2022-08-24T00:20:13.893Z,8.50
2022-08-24T00:22:41.644Z,8.48
2022-08-24T00:25:11.791Z,8.48
2022-08-24T00:27:41.183Z,9.05
2022-08-24T00:30:15.545Z,13.13
2022-08-24T00:32:43.963Z,8.43
2022-08-24T00:35:12.876Z,9.93
2022-08-24T00:37:41.154Z,12.18
2022-08-24T00:40:23.313Z,15.05
2022-08-24T00:42:51.664Z,12.98
2022-08-24T00:45:20.265Z,7.80
2022-08-24T00:47:55.700Z,9.68
2022-08-24T00:50:27.573Z,12.02
2022-08-24T00:53:00.153Z,12.23
2022-08-24T00:55:39.273Z,8.05
2022-08-24T00:58:17.038Z,8.93
2022-08-24T01:00:49.669Z,10.27
2022-08-24T01:03:18.450Z,12.18
2022-08-24T01:05:47.169Z,8.68
2022-08-24T01:08:17.133Z,10.35
2022-08-24T01:10:49.013Z,10.10
2022-08-24T01:13:17.276Z,10.07
2022-08-24T01:15:47.879Z,12.38
2022-08-24T01:18:37.793Z,12.20
2022-08-24T01:21:25.053Z,12.43
2022-08-24T01:24:00.229Z,8.15
2022-08-24T01:26:37.761Z,10.02
2022-08-24T01:29:12.622Z,11.10
2022-08-24T01:31:40.492Z,12.95
2022-08-24T01:34:09.138Z,12.77
2022-08-24T01:36:39.891Z,17.88
2022-08-24T01:39:30.277Z,11.88
2022-08-24T01:41:59.113Z,13.63
2022-08-24T01:44:29.855Z,11.65
2022-08-24T01:46:58.424Z,11.82
2022-08-24T01:49:32.561Z,12.40
2022-08-24T01:52:01.088Z,12.18
2022-08-24T01:54:28.912Z,10.82
2022-08-24T01:56:57.122Z,12.65
2022-08-24T01:59:25.612Z,10.73
2022-08-24T02:01:58.453Z,13.40
2022-08-24T02:04:26.131Z,10.82
2022-08-24T02:06:55.596Z,10.38
2022-08-24T02:09:23.232Z,12.85
2022-08-24T02:11:56.189Z,13.00
2022-08-24T02:14:24.358Z,13.20
2022-08-24T02:16:57.540Z,13.57
2022-08-24T02:19:27.432Z,11.02
2022-08-24T02:21:55.141Z,15.38
2022-08-24T02:24:22.845Z,11.27
2022-08-24T02:26:51.072Z,15.38
2022-08-24T02:29:18.830Z,10.35
2022-08-24T02:31:46.492Z,11.57
2022-08-24T02:34:14.228Z,12.07
2022-08-24T02:36:41.790Z,13.13
2022-08-24T02:39:09.872Z,12.85
2022-08-24T02:41:38.560Z,10.50
2022-08-24T02:44:07.432Z,11.82
2022-08-24T02:46:36.606Z,11.88
2022-08-24T02:49:11.704Z,9.43
2022-08-24T02:51:45.586Z,12.63
2022-08-24T02:54:22.014Z,11.68
2022-08-24T02:56:52.240Z,13.52
2022-08-24T02:59:21.338Z,9.98
2022-08-24T03:01:50.744Z,12.88
2022-08-24T03:04:20.871Z,7.43
2022-08-24T03:06:48.690Z,8.73
2022-08-24T03:09:17.951Z,8.70
2022-08-24T03:11:45.788Z,7.47
2022-08-24T03:14:14.679Z,8.95
2022-08-24T03:16:43.131Z,8.23
2022-08-24T03:19:12.227Z,9.05
2022-08-24T03:21:41.591Z,7.43
2022-08-24T03:24:09.924Z,7.95
2022-08-24T03:26:39.113Z,8.70
2022-08-24T03:29:12.801Z,8.50
2022-08-24T03:31:40.441Z,7.70
2022-08-24T03:34:08.080Z,9.23
2022-08-24T03:36:35.649Z,9.10
2022-08-24T03:39:03.531Z,8.48
2022-08-24T03:41:31.011Z,8.10
2022-08-24T03:44:03.221Z,14.07
2022-08-24T03:46:35.598Z,11.02
2022-08-24T03:49:08.768Z,11.48
2022-08-24T03:51:38.041Z,9.25
2022-08-24T03:54:09.631Z,8.32
2022-08-24T03:56:38.441Z,10.75
2022-08-24T03:59:07.921Z,9.98
2022-08-24T04:01:40.477Z,8.45
2022-08-24T04:04:09.710Z,8.48
2022-08-24T04:06:38.967Z,10.93
2022-08-24T04:09:07.924Z,8.65
2022-08-24T04:11:41.522Z,12.60
2022-08-24T04:14:23.581Z,8.85
2022-08-24T04:17:01.171Z,10.63
2022-08-24T04:19:35.122Z,9.25
2022-08-24T04:22:02.871Z,13.18
2022-08-24T04:24:32.129Z,16.63
2022-08-24T04:27:00.372Z,12.70
2022-08-24T04:29:28.004Z,11.70
2022-08-24T04:31:55.985Z,10.70
2022-08-24T04:34:24.306Z,11.63
2022-08-24T04:36:52.151Z,8.60
2022-08-24T04:39:19.680Z,10.88
2022-08-24T04:42:07.691Z,12.13
2022-08-24T04:44:39.977Z,16.02
2022-08-24T04:47:08.960Z,10.88
2022-08-24T04:49:39.282Z,12.25
2022-08-24T04:52:08.716Z,14.45
2022-08-24T04:54:36.751Z,11.45
2022-08-24T04:57:13.574Z,17.77
2022-08-24T04:59:44.960Z,13.98
2022-08-24T05:02:12.788Z,12.40
2022-08-24T05:04:40.901Z,16.85
2022-08-24T05:07:09.010Z,15.70
2022-08-24T05:09:41.156Z,18.63
2022-08-24T05:12:10.105Z,15.27
2022-08-24T05:14:40.660Z,11.57
2022-08-24T05:17:09.286Z,9.88
2022-08-24T05:19:38.211Z,16.50
2022-08-24T05:22:05.792Z,12.68
2022-08-24T05:24:33.869Z,12.55
2022-08-24T05:27:01.505Z,13.52
2022-08-24T05:29:34.069Z,12.98
2022-08-24T05:32:02.247Z,8.95
2022-08-24T05:34:30.559Z,9.73
2022-08-24T05:36:58.189Z,10.70
2022-08-24T05:39:36.108Z,12.65
2022-08-24T05:42:08.560Z,10.43
2022-08-24T05:44:42.569Z,12.48
2022-08-24T05:47:10.580Z,11.70
2022-08-24T05:49:41.344Z,14.10
2022-08-24T05:52:10.769Z,9.50
2022-08-24T05:54:38.309Z,13.13
2022-08-24T05:57:06.561Z,12.73
2022-08-24T05:59:54.754Z,12.93
2022-08-24T06:02:23.925Z,11.30
2022-08-24T06:04:51.868Z,15.60
2022-08-24T06:07:20.548Z,11.25
2022-08-24T06:12:22.056Z,13.43
2022-08-24T06:14:49.599Z,13.77
2022-08-24T06:17:22.735Z,9.98
2022-08-24T06:19:52.089Z,14.63
2022-08-24T06:22:19.647Z,12.23
2022-08-24T06:25:05.879Z,14.45
2022-08-24T06:27:34.250Z,12.00
2022-08-24T06:30:06.413Z,17.10
2022-08-24T06:32:54.157Z,13.48
2022-08-24T06:35:29.434Z,9.95
2022-08-24T06:37:57.987Z,13.60
2022-08-24T06:40:26.578Z,18.50
2022-08-24T06:42:54.990Z,14.15
2022-08-24T06:46:01.370Z,12.02
2022-08-24T06:48:34.638Z,14.20
2022-08-24T06:51:07.919Z,8.45
2022-08-24T06:53:36.085Z,10.97
2022-08-24T06:56:04.814Z,11.25
2022-08-24T06:58:35.948Z,15.00
2022-08-24T07:01:12.720Z,17.95
2022-08-24T07:03:42.038Z,18.23
2022-08-24T07:06:21.500Z,17.42
2022-08-24T07:08:49.639Z,18.83
2022-08-24T07:11:22.079Z,21.50
2022-08-24T07:13:50.647Z,22.02
2022-08-24T07:16:20.763Z,26.58
2022-08-24T07:18:52.639Z,29.53
2022-08-24T07:21:22.978Z,24.65
2022-08-24T07:23:57.074Z,22.35
2022-08-24T07:26:27.727Z,25.70
2022-08-24T07:29:05.648Z,21.08
2022-08-24T07:31:43.905Z,21.25
2022-08-24T07:34:29.679Z,21.67
2022-08-24T07:36:57.239Z,19.77
2022-08-24T07:39:24.842Z,24.45
2022-08-24T07:44:40.346Z,21.08
2022-08-24T07:47:34.290Z,28.05
2022-08-24T07:49:56.527Z,18.40
2022-08-24T07:52:24.598Z,19.75
2022-08-24T07:54:52.187Z,18.27
2022-08-24T07:57:20.325Z,20.05
2022-08-24T07:59:47.959Z,19.77
2022-08-24T08:02:15.652Z,17.35
2022-08-24T08:04:48.489Z,21.58
2022-08-24T08:07:17.702Z,16.35
2022-08-24T08:09:49.860Z,20.05
2022-08-24T08:12:19.506Z,16.00
2022-08-24T08:14:55.734Z,22.52
2022-08-24T08:17:23.954Z,22.42
2022-08-24T08:19:51.456Z,19.33
2022-08-24T08:22:37.547Z,22.73
2022-08-24T08:25:23.846Z,18.35
2022-08-24T08:27:51.914Z,20.52
2022-08-24T08:30:19.716Z,19.77
2022-08-24T08:32:47.327Z,20.90
2022-08-24T08:35:15.509Z,24.40
2022-08-24T08:37:43.831Z,24.27
2022-08-24T08:40:28.616Z,20.83
2022-08-24T08:43:09.023Z,18.50
2022-08-24T08:46:07.302Z,27.25
2022-08-24T08:49:23.783Z,21.05
2022-08-24T08:52:27.442Z,21.80
2022-08-24T08:55:29.393Z,20.50
2022-08-24T08:58:00.514Z,16.85
2022-08-24T09:01:09.724Z,20.20
2022-08-24T09:04:34.578Z,16.80
2022-08-24T09:07:31.556Z,21.17
2022-08-24T09:10:43.671Z,15.85
2022-08-24T09:13:27.878Z,16.38
2022-08-24T09:16:01.388Z,22.17
2022-08-24T09:18:55.817Z,21.13
2022-08-24T09:21:41.445Z,19.88
2022-08-24T09:24:45.385Z,20.58
2022-08-24T09:27:32.798Z,24.88
2022-08-24T09:30:18.540Z,20.33
2022-08-24T09:33:09.307Z,24.92
2022-08-24T09:36:05.862Z,23.67
2022-08-24T09:38:59.463Z,16.65
2022-08-24T09:41:36.296Z,26.00
2022-08-24T09:44:10.077Z,24.55
2022-08-24T09:49:54.803Z,25.45
2022-08-24T09:52:37.502Z,20.13
2022-08-24T09:55:46.792Z,23.30
2022-08-24T09:58:42.036Z,30.10
2022-08-24T10:01:31.523Z,26.25
2022-08-24T10:04:11.376Z,28.23
2022-08-24T10:06:57.482Z,26.02
2022-08-24T10:10:04.886Z,26.08
2022-08-24T10:13:11.157Z,24.55
2022-08-24T10:16:17.085Z,30.92
2022-08-24T10:19:00.965Z,30.25
2022-08-24T10:22:01.685Z,21.42
2022-08-24T10:24:29.860Z,25.52
2022-08-24T10:27:08.824Z,25.27
2022-08-24T10:29:53.662Z,27.60
2022-08-24T10:33:12.306Z,24.48
2022-08-24T10:36:16.387Z,25.60
2022-08-24T10:39:09.695Z,24.08
2022-08-24T10:42:34.467Z,25.83
2022-08-24T10:45:32.786Z,24.20
2022-08-24T10:48:33.398Z,24.90
2022-08-24T10:51:11.075Z,26.98
2022-08-24T10:53:39.169Z,24.85
2022-08-24T10:56:11.520Z,24.23
2022-08-24T10:58:48.091Z,30.42
2022-08-24T11:01:24.264Z,21.33
2022-08-24T11:04:06.876Z,23.55
2022-08-24T11:06:44.485Z,25.65
2022-08-24T11:09:19.748Z,28.38
2022-08-24T11:11:50.102Z,28.35
2022-08-24T11:14:30.510Z,29.27
2022-08-24T11:17:35.065Z,22.58
2022-08-24T11:20:03.147Z,20.30
2022-08-24T11:22:41.902Z,24.10
2022-08-24T11:25:21.833Z,23.48
2022-08-24T11:27:57.957Z,24.48
2022-08-24T11:30:29.815Z,26.30
2022-08-24T11:33:03.215Z,21.35
2022-08-24T11:35:33.650Z,27.02
2022-08-24T11:38:22.481Z,24.15
2022-08-24T11:41:08.104Z,24.75
2022-08-24T11:44:02.197Z,25.88
2022-08-24T11:47:00.293Z,28.05
2022-08-24T11:49:53.024Z,25.60
2022-08-24T11:53:04.236Z,24.38
2022-08-24T11:56:01.309Z,23.23
2022-08-24T11:58:47.540Z,26.38
2022-08-24T12:01:23.800Z,29.83
2022-08-24T12:04:38.504Z,23.20
2022-08-24T12:07:17.395Z,25.55
2022-08-24T12:10:03.648Z,28.80
2022-08-24T12:13:03.697Z,26.58
2022-08-24T12:15:56.849Z,29.48
2022-08-24T12:18:28.424Z,25.42
2022-08-24T12:20:57.244Z,26.00
2022-08-24T12:23:33.510Z,33.72
2022-08-24T12:26:12.637Z,27.52
2022-08-24T12:29:10.084Z,25.02
2022-08-24T12:31:46.243Z,24.83
2022-08-24T12:34:23.064Z,25.45
2022-08-24T12:36:53.424Z,27.45
2022-08-24T12:39:28.993Z,28.85
2022-08-24T12:42:07.970Z,32.67
2022-08-24T12:44:43.662Z,24.83
2022-08-24T12:47:13.490Z,32.30
2022-08-24T12:49:53.394Z,24.17
2022-08-24T12:52:38.999Z,23.33
2022-08-24T12:55:41.083Z,27.10
2022-08-24T12:58:34.479Z,25.00
2022-08-24T13:01:07.389Z,29.05
2022-08-24T13:03:37.983Z,26.45
2022-08-24T13:06:11.366Z,31.45
2022-08-24T13:08:43.603Z,31.38
2022-08-24T13:11:26.884Z,26.05
2022-08-24T13:13:54.403Z,38.30
2022-08-24T13:16:45.669Z,27.52
2022-08-24T13:19:39.694Z,28.55
2022-08-24T13:22:10.129Z,28.13
2022-08-24T13:24:43.932Z,24.30
2022-08-24T13:29:45.562Z,28.67
2022-08-24T13:32:22.150Z,26.67
2022-08-24T13:34:51.801Z,24.35
2022-08-24T13:37:29.062Z,22.25
2022-08-24T13:40:25.241Z,23.52
2022-08-24T13:43:13.809Z,21.20
2022-08-24T13:45:57.628Z,19.90
2022-08-24T13:48:32.946Z,17.95
2022-08-24T13:51:21.122Z,21.98
2022-08-24T13:54:20.542Z,23.92
2022-08-24T13:57:19.691Z,18.98
2022-08-24T14:00:01.975Z,18.83
2022-08-24T14:02:50.573Z,19.17
2022-08-24T14:05:37.159Z,18.48
2022-08-24T14:08:32.553Z,17.55
2022-08-24T14:11:09.002Z,19.77
2022-08-24T14:14:06.632Z,18.55
2022-08-24T14:17:42.032Z,18.73
2022-08-24T14:20:15.411Z,19.38
2022-08-24T14:23:12.703Z,20.80
2022-08-24T14:25:41.148Z,20.05
2022-08-24T14:28:33.183Z,18.92
2022-08-24T14:31:20.071Z,18.67
2022-08-24T14:34:08.332Z,17.33
2022-08-24T14:36:47.842Z,19.48
2022-08-24T14:39:54.685Z,20.58
2022-08-24T14:42:39.019Z,20.80
2022-08-24T14:45:14.377Z,18.33
2022-08-24T14:48:00.166Z,18.10
2022-08-24T14:50:45.051Z,17.02
2022-08-24T14:53:27.962Z,15.30
2022-08-24T14:56:01.088Z,18.15
2022-08-24T14:58:47.652Z,18.80
2022-08-24T15:01:15.203Z,20.48
2022-08-24T15:03:51.929Z,17.80
2022-08-24T15:06:48.471Z,19.83
2022-08-24T15:09:35.780Z,20.10
2022-08-24T15:12:36.073Z,20.83
2022-08-24T15:15:34.225Z,21.75
2022-08-24T15:18:01.949Z,18.88
2022-08-24T15:20:58.831Z,21.90
2022-08-24T15:23:49.623Z,24.55
2022-08-24T15:26:52.337Z,21.38
2022-08-24T15:29:23.841Z,22.33
2022-08-24T15:32:07.940Z,28.25
2022-08-24T15:37:10.182Z,23.92
2022-08-24T15:39:37.826Z,23.83
2022-08-24T15:42:13.651Z,23.25
2022-08-24T15:44:45.330Z,22.67
2022-08-24T15:47:22.363Z,22.90
2022-08-24T15:50:01.959Z,19.25
2022-08-24T15:53:06.007Z,19.00
2022-08-24T15:55:38.850Z,18.92
2022-08-24T15:58:15.491Z,19.85
2022-08-24T16:01:01.504Z,17.83
2022-08-24T16:03:46.951Z,17.50
2022-08-24T16:06:45.412Z,18.98
2022-08-24T16:09:18.862Z,20.65
2022-08-24T16:12:02.341Z,16.48
2022-08-24T16:14:34.997Z,19.55
2022-08-24T16:17:18.832Z,18.50
2022-08-24T16:19:53.098Z,13.10
2022-08-24T16:23:00.174Z,14.88
2022-08-24T16:25:43.657Z,15.32
2022-08-24T16:28:36.571Z,17.00
2022-08-24T16:31:07.392Z,11.73
2022-08-24T16:33:46.969Z,16.67
2022-08-24T16:36:18.206Z,19.38
2022-08-24T16:38:49.332Z,15.90
2022-08-24T16:41:21.497Z,17.38
2022-08-24T16:43:49.464Z,19.00
2022-08-24T16:46:22.800Z,19.83
2022-08-24T16:48:50.917Z,25.95
2022-08-24T16:51:18.399Z,22.83
2022-08-24T16:53:45.928Z,23.20
2022-08-24T16:56:16.711Z,23.85
2022-08-24T16:58:47.857Z,21.33
2022-08-24T17:01:16.479Z,23.15
2022-08-24T17:03:44.180Z,19.60
2022-08-24T17:06:12.772Z,21.58
2022-08-24T17:08:40.950Z,18.83
2022-08-24T17:11:08.700Z,21.65
2022-08-24T17:13:49.260Z,23.90
2022-08-24T17:16:19.981Z,21.65
2022-08-24T17:18:47.836Z,21.55
2022-08-24T17:21:15.679Z,26.17
2022-08-24T17:23:43.572Z,20.35
2022-08-24T17:26:20.735Z,22.35
2022-08-24T17:28:52.733Z,21.70
2022-08-24T17:31:20.334Z,19.63
2022-08-24T17:33:47.866Z,19.05
2022-08-24T17:36:16.965Z,16.77
2022-08-24T17:38:52.978Z,20.10
2022-08-24T17:41:24.876Z,17.42
2022-08-24T17:43:53.009Z,16.65
2022-08-24T17:46:20.651Z,19.33
2022-08-24T17:48:48.426Z,18.67
2022-08-24T17:51:16.751Z,18.85
2022-08-24T17:53:44.461Z,14.48
2022-08-24T17:56:15.478Z,18.65
2022-08-24T17:59:03.220Z,24.25
2022-08-24T18:01:31.718Z,18.90
2022-08-24T18:03:59.493Z,16.33
2022-08-24T18:06:28.927Z,18.52
2022-08-24T18:08:58.450Z,20.92
2022-08-24T18:11:26.458Z,19.48
2022-08-24T18:13:54.806Z,16.83
2022-08-24T18:16:25.179Z,18.60
2022-08-24T18:18:54.129Z,16.92
2022-08-24T18:21:22.958Z,16.77
2022-08-24T18:23:51.476Z,17.52
2022-08-24T18:26:29.260Z,16.98
2022-08-24T18:29:02.032Z,13.60
2022-08-24T18:33:58.409Z,19.25
2022-08-24T18:36:25.889Z,16.05
2022-08-24T18:38:53.650Z,17.38
2022-08-24T18:41:21.539Z,15.45
2022-08-24T18:43:49.098Z,16.75
2022-08-24T18:46:16.758Z,17.13
2022-08-24T18:48:44.428Z,21.05
2022-08-24T18:51:19.005Z,19.38
2022-08-24T18:53:48.661Z,21.13
2022-08-24T18:56:16.698Z,18.05
2022-08-24T18:58:44.307Z,17.10
2022-08-24T19:01:12.696Z,14.55
2022-08-24T19:03:43.204Z,20.40
2022-08-24T19:06:11.015Z,17.38
2022-08-24T19:08:38.699Z,16.77
2022-08-24T19:11:07.539Z,14.27
2022-08-24T19:13:35.328Z,19.88
2022-08-24T19:16:03.298Z,16.55
2022-08-24T19:18:31.258Z,13.27
2022-08-24T19:21:00.298Z,25.33
2022-08-24T19:23:32.978Z,19.38
2022-08-24T19:26:02.378Z,15.48
2022-08-24T19:28:30.400Z,17.67
2022-08-24T19:31:01.809Z,15.23
2022-08-24T19:33:34.894Z,19.98
2022-08-24T19:36:03.018Z,16.53
2022-08-24T19:38:30.714Z,16.80
2022-08-24T19:40:59.715Z,21.70
2022-08-24T19:43:29.009Z,17.55
2022-08-24T19:46:06.412Z,18.75
2022-08-24T19:48:37.593Z,16.98
2022-08-24T19:51:08.844Z,22.88
2022-08-24T19:53:37.904Z,20.70
2022-08-24T19:56:07.138Z,26.88
2022-08-24T19:58:46.976Z,18.23
2022-08-24T20:01:23.972Z,20.45
2022-08-24T20:03:52.318Z,18.85
2022-08-24T20:06:21.669Z,14.65
2022-08-24T20:08:50.129Z,20.55
2022-08-24T20:11:19.414Z,18.55
2022-08-24T20:13:50.202Z,19.70
2022-08-24T20:16:20.250Z,19.15
2022-08-24T20:18:48.295Z,16.92
2022-08-24T20:21:16.324Z,20.20
2022-08-24T20:23:45.614Z,16.48
2022-08-24T20:26:13.866Z,18.35
2022-08-24T20:28:46.327Z,18.73
2022-08-24T20:31:15.151Z,18.33
2022-08-24T20:33:43.074Z,15.60
2022-08-24T20:36:26.998Z,18.25
2022-08-24T20:38:57.849Z,19.33
2022-08-24T20:41:27.607Z,15.20
2022-08-24T20:43:56.769Z,16.60
2022-08-24T20:46:26.858Z,17.20
2022-08-24T20:48:56.968Z,15.30
2022-08-24T20:51:25.774Z,14.68
2022-08-24T20:53:53.648Z,13.77
2022-08-24T20:56:39.276Z,18.40
2022-08-24T20:59:09.975Z,16.75
2022-08-24T21:01:40.830Z,20.00
2022-08-24T21:04:09.550Z,18.88
2022-08-24T21:06:39.478Z,17.17
2022-08-24T21:09:13.994Z,17.42
2022-08-24T21:11:43.412Z,17.33
2022-08-24T21:14:11.044Z,20.38
2022-08-24T21:16:41.763Z,16.65
2022-08-24T21:19:12.024Z,18.95
2022-08-24T21:21:42.239Z,16.15
2022-08-24T21:24:10.767Z,17.67
2022-08-24T21:26:39.138Z,21.05
2022-08-24T21:29:08.579Z,17.95
2022-08-24T21:31:36.708Z,18.92
2022-08-24T21:34:23.183Z,16.70
2022-08-24T21:36:52.807Z,15.15
2022-08-24T21:39:21.981Z,14.75
2022-08-24T21:41:49.376Z,19.13
2022-08-24T21:44:17.197Z,15.00
2022-08-24T21:46:44.761Z,18.58
2022-08-24T21:49:12.537Z,19.67
2022-08-24T21:51:40.417Z,18.83
2022-08-24T21:54:08.308Z,19.27
2022-08-24T21:56:35.941Z,19.40
2022-08-24T21:59:03.886Z,21.98
2022-08-24T22:01:31.802Z,19.58
2022-08-24T22:03:59.678Z,16.60
2022-08-24T22:06:31.306Z,18.27
2022-08-24T22:09:00.567Z,18.33
2022-08-24T22:11:29.031Z,17.67
2022-08-24T22:13:56.966Z,17.00
2022-08-24T22:16:25.232Z,19.50
2022-08-24T22:18:53.283Z,17.17
2022-08-24T22:21:24.157Z,17.17
2022-08-24T22:23:51.697Z,17.80
2022-08-24T22:26:19.347Z,20.75
2022-08-24T22:28:47.118Z,17.58
2022-08-24T22:31:24.463Z,14.57
2022-08-24T22:33:52.129Z,18.45
2022-08-24T22:36:19.652Z,14.23
2022-08-24T22:38:48.186Z,14.98
2022-08-24T22:41:16.492Z,17.13
2022-08-24T22:44:02.826Z,15.35
2022-08-24T22:46:30.499Z,14.10
2022-08-24T22:48:59.235Z,17.50
2022-08-24T22:51:26.857Z,19.15
2022-08-24T22:53:54.363Z,17.58
2022-08-24T22:56:25.545Z,13.23
2022-08-24T22:58:53.635Z,15.43
2022-08-24T23:01:24.787Z,14.50
2022-08-24T23:03:55.255Z,12.75
2022-08-24T23:06:24.041Z,15.00
2022-08-24T23:08:52.097Z,16.67
2022-08-24T23:11:24.727Z,14.52
2022-08-24T23:13:52.913Z,15.68
2022-08-24T23:16:20.719Z,15.70
2022-08-24T23:19:06.871Z,17.95
2022-08-24T23:21:34.580Z,16.00
2022-08-24T23:24:02.417Z,13.50
2022-08-24T23:26:32.720Z,12.85
2022-08-24T23:29:01.035Z,18.05
2022-08-24T23:31:28.500Z,14.73
2022-08-24T23:33:56.761Z,17.60
2022-08-24T23:36:26.969Z,16.05
2022-08-24T23:38:56.751Z,15.82
2022-08-24T23:41:31.701Z,16.15
2022-08-24T23:44:05.680Z,15.02
2022-08-24T23:46:33.799Z,17.50
2022-08-24T23:49:03.383Z,15.50
2022-08-24T23:51:31.495Z,15.52
2022-08-24T23:53:59.231Z,15.65
2022-08-24T23:56:31.592Z,20.33
2022-08-24T23:59:02.131Z,15.20
